aviador You're here:

OISY Decoded Metar

in _UNIDENTIFIED
Report Time2018-02-20 03:30:00
UTC Time2018-02-20 03:43:53
Flight Rules vfr VFR
WindCalm
Visibility8000 m
Phenomena:N/A
Clouds:N/A
Expected CloudBase > 400 ft AGL from Temp-Dew spread
CeilingNone
Temp-1°C
Dew Point-2°C (93% RH)
AAT-3.3°C
QNH1018 hPa
Raw Report
METAR OISY 200330Z 00000KT 8000 NSC M01/M02 Q1018=

Extra information for OISY:More info

Metar Taf Metar & Taf Last 4 Metars F.Rules Stats Wind Profile Meteogram Temp Stats Metar ALERT Operation Metar Decoded Social comments